Time;durP1;ratioP1;P1;durP2;ratioP2;P2;SDS_P1;SDS_P2;PMS_P1;PMS_P2;Temp;Humidity;BMP_temperature;BMP_pressure;BME280_temperature;BME280_humidity;BME280_pressure;Samples;Min_cycle;Max_cycle;Signal;HPM_P1;HPM_P2
2022/11/04 00:02:14;;;;;;;1.48;1.38;;;20.20;64.30;;;;;;4978879;28;43416;-61
2022/11/04 00:04:41;;;;;;;1.45;1.35;;;20.20;64.30;;;;;;4971624;28;43563;-60
2022/11/04 00:08:22;;;;;;;0.98;0.98;;;20.20;64.30;;;;;;4975093;28;44898;-61
2022/11/04 00:09:56;;;;;;;1.00;1.00;;;20.20;64.30;;;;;;4974484;28;43460;-61
2022/11/04 00:12:23;;;;;;;1.05;1.00;;;20.20;64.30;;;;;;4978804;28;43414;-61
2022/11/04 00:14:51;;;;;;;1.40;1.30;;;20.20;64.30;;;;;;4973258;28;43475;-61
2022/11/04 00:17:18;;;;;;;1.33;1.30;;;20.20;64.30;;;;;;4975408;28;44786;-61
2022/11/04 00:33:56;;;;;;;1.48;1.38;;;20.10;64.30;;;;;;4982345;28;43428;-61
2022/11/04 00:36:24;;;;;;;1.60;1.50;;;20.10;64.30;;;;;;4975964;28;43480;-60
2022/11/04 00:38:52;;;;;;;1.35;1.25;;;20.10;64.30;;;;;;4978411;28;45134;-61
2022/11/04 00:41:26;;;;;;;1.65;1.40;;;20.10;64.30;;;;;;4978809;28;44012;-61
2022/11/04 00:44:03;;;;;;;1.05;1.05;;;20.10;64.30;;;;;;4981776;28;43370;-61
2022/11/04 00:46:32;;;;;;;1.45;1.33;;;20.10;64.30;;;;;;4977088;28;43959;-61
2022/11/04 00:49:00;;;;;;;1.38;1.27;;;20.10;64.30;;;;;;4982819;28;44625;-61
2022/11/04 00:51:27;;;;;;;1.50;1.40;;;20.10;64.30;;;;;;4977223;28;43480;-61
2022/11/04 00:53:57;;;;;;;1.45;1.35;;;20.10;64.20;;;;;;4974945;28;43372;-61
2022/11/04 00:56:24;;;;;;;2.17;1.30;;;20.10;64.20;;;;;;4978015;28;43831;-60
2022/11/04 00:58:52;;;;;;;1.40;1.30;;;20.00;64.20;;;;;;4977950;28;45082;-60
2022/11/04 01:01:19;;;;;;;1.10;1.00;;;20.00;64.20;;;;;;4976690;28;43392;-61
2022/11/04 01:03:49;;;;;;;1.10;1.10;;;20.00;64.10;;;;;;4975607;28;43369;-61
2022/11/04 01:06:18;;;;;;;1.25;1.15;;;20.00;64.10;;;;;;4978041;28;43663;-61
2022/11/04 01:08:46;;;;;;;1.35;1.27;;;20.00;64.20;;;;;;4978592;28;44823;-61
2022/11/04 01:11:15;;;;;;;1.27;1.17;;;20.00;64.20;;;;;;4976287;28;43380;-61
2022/11/04 01:13:43;;;;;;;1.40;1.30;;;20.00;64.20;;;;;;4974459;28;43419;-61
2022/11/04 01:16:11;;;;;;;0.90;0.90;;;20.00;64.20;;;;;;4973760;28;43543;-61
2022/11/04 01:18:40;;;;;;;1.10;1.00;;;20.00;64.20;;;;;;4978131;28;43950;-60
2022/11/04 01:21:10;;;;;;;0.90;0.90;;;20.00;64.10;;;;;;4975122;28;43437;-60
2022/11/04 01:23:39;;;;;;;1.33;1.00;;;20.00;64.80;;;;;;4975136;28;43440;-60
2022/11/04 01:26:18;;;;;;;1.75;1.00;;;20.00;64.10;;;;;;4978832;28;43512;-60
2022/11/04 01:28:46;;;;;;;0.88;0.88;;;20.00;64.20;;;;;;4973603;28;44054;-60
2022/11/04 01:31:16;;;;;;;1.33;1.00;;;19.90;64.10;;;;;;4978080;28;44011;-60
2022/11/04 01:33:43;;;;;;;0.73;0.73;;;19.90;64.10;;;;;;4978121;28;43440;-60
2022/11/04 01:36:11;;;;;;;1.13;0.93;;;19.90;64.10;;;;;;4978127;28;43389;-60
2022/11/04 01:38:39;;;;;;;1.00;1.00;;;19.90;64.10;;;;;;4976324;28;44076;-60
2022/11/04 01:41:08;;;;;;;1.00;1.00;;;19.90;64.10;;;;;;4974010;28;43432;-60
2022/11/04 01:43:59;;;;;;;0.73;0.73;;;19.90;64.20;;;;;;4977000;28;43477;-60
2022/11/04 01:46:30;;;;;;;0.82;0.82;;;19.90;64.20;;;;;;4974707;28;43510;-61
2022/11/04 01:49:29;;;;;;;0.98;0.80;;;19.90;64.30;;;;;;4973949;28;44067;-60
2022/11/04 01:52:03;;;;;;;1.00;0.90;;;19.90;64.20;;;;;;4976166;28;44019;-60
2022/11/04 01:54:33;;;;;;;0.60;0.60;;;19.90;64.20;;;;;;4976157;28;43424;-59
2022/11/04 01:57:04;;;;;;;1.55;0.90;;;19.90;64.20;;;;;;4977644;28;43618;-61
2022/11/04 01:59:36;;;;;;;0.80;0.80;;;19.90;64.20;;;;;;4977464;28;44064;-60
2022/11/04 02:02:04;;;;;;;1.38;0.73;;;19.80;64.20;;;;;;4977466;28;43374;-60
2022/11/04 02:04:32;;;;;;;2.58;1.00;;;19.90;64.30;;;;;;4979637;28;43485;-60
2022/11/04 02:07:04;;;;;;;1.17;0.70;;;19.80;64.20;;;;;;4976156;28;43536;-60
2022/11/04 02:09:33;;;;;;;0.90;0.90;;;19.80;64.20;;;;;;4976792;28;44983;-60
2022/11/04 02:14:48;;;;;;;0.95;0.80;;;19.80;64.20;;;;;;4974384;28;43431;-60
2022/11/04 02:17:19;;;;;;;0.88;0.80;;;19.80;64.20;;;;;;4977124;28;43592;-60
2022/11/04 02:20:14;;;;;;;0.70;0.70;;;19.80;64.20;;;;;;4977112;28;44979;-61
2022/11/04 02:23:09;;;;;;;0.63;0.63;;;19.80;64.90;;;;;;4974996;28;43788;-60
2022/11/04 02:25:58;;;;;;;0.70;0.70;;;19.80;64.20;;;;;;4976815;28;43556;-61
2022/11/04 02:29:02;;;;;;;1.45;0.75;;;19.80;64.20;;;;;;4978018;28;43445;-60
2022/11/04 02:31:39;;;;;;;0.93;0.70;;;19.80;64.20;;;;;;4977616;28;44775;-61
2022/11/04 02:34:15;;;;;;;0.55;0.55;;;19.80;64.20;;;;;;4979447;28;44312;-60
2022/11/04 02:36:50;;;;;;;1.30;0.70;;;19.70;64.20;;;;;;4977065;28;43472;-60
2022/11/04 02:39:20;;;;;;;1.02;0.60;;;19.70;64.10;;;;;;4976813;28;43448;-61
2022/11/04 02:42:03;;;;;;;0.63;0.63;;;19.70;64.30;;;;;;4973872;28;43849;-61
2022/11/04 02:44:39;;;;;;;0.63;0.60;;;19.70;64.20;;;;;;4975105;28;43379;-60
2022/11/04 02:47:15;;;;;;;0.90;0.50;;;19.70;64.20;;;;;;4977666;28;43377;-61
2022/11/04 02:50:02;;;;;;;0.40;0.40;;;19.70;64.20;;;;;;4973855;28;43582;-61
2022/11/04 02:52:42;;;;;;;0.70;0.50;;;19.70;64.20;;;;;;4975477;28;43820;-61
2022/11/04 02:55:29;;;;;;;0.63;0.60;;;19.70;64.20;;;;;;4972736;28;43535;-60
2022/11/04 02:57:59;;;;;;;0.52;0.52;;;19.80;64.20;;;;;;4973736;28;43416;-61
2022/11/04 03:00:28;;;;;;;0.73;0.47;;;19.70;64.10;;;;;;4971924;28;43524;-61
2022/11/04 03:03:00;;;;;;;0.43;0.40;;;19.70;64.10;;;;;;4976746;28;44054;-61
2022/11/04 03:05:32;;;;;;;0.88;0.63;;;19.70;64.10;;;;;;4972489;28;43952;-60
2022/11/04 03:08:05;;;;;;;0.50;0.50;;;19.70;64.20;;;;;;4975378;28;43562;-61
2022/11/04 03:10:37;;;;;;;0.75;0.73;;;19.70;64.20;;;;;;4976835;28;43434;-61
2022/11/04 03:13:23;;;;;;;0.82;0.45;;;19.70;64.20;;;;;;4974763;28;44633;-61
2022/11/04 03:15:57;;;;;;;0.75;0.60;;;19.70;64.20;;;;;;4979738;28;43992;-61
2022/11/04 03:18:43;;;;;;;1.15;0.60;;;19.70;64.20;;;;;;4976993;28;43432;-61
2022/11/04 03:21:14;;;;;;;1.33;0.60;;;19.70;64.20;;;;;;4972843;28;43548;-61
2022/11/04 03:23:41;;;;;;;;;;;19.70;64.30;;;;;;4974561;28;44962;-61
2022/11/04 03:26:45;;;;;;;0.63;0.63;;;19.60;64.20;;;;;;4976864;28;43524;-61
2022/11/04 03:29:38;;;;;;;1.10;0.50;;;19.60;64.20;;;;;;4951330;28;43439;-61
2022/11/04 03:32:11;;;;;;;1.48;0.60;;;19.60;64.30;;;;;;4955451;28;43556;-61
2022/11/04 03:34:39;;;;;;;0.95;0.50;;;19.60;64.20;;;;;;4971331;28;44750;-61
2022/11/04 03:37:06;;;;;;;0.88;0.60;;;19.60;64.20;;;;;;4973085;28;43456;-61
2022/11/04 03:39:33;;;;;;;0.52;0.50;;;19.60;64.20;;;;;;4975069;28;43450;-61
2022/11/04 03:42:18;;;;;;;1.33;0.63;;;19.60;64.20;;;;;;4975707;28;43614;-61
2022/11/04 03:44:51;;;;;;;0.32;0.32;;;19.60;64.20;;;;;;4972349;28;44030;-61
2022/11/04 03:47:21;;;;;;;0.88;0.77;;;19.60;64.20;;;;;;4974056;28;43427;-61
2022/11/04 03:50:16;;;;;;;1.05;0.47;;;19.60;64.20;;;;;;4975973;28;44018;-61
2022/11/04 03:52:44;;;;;;;0.77;0.43;;;19.60;64.20;;;;;;4972338;28;43552;-61
2022/11/04 03:55:12;;;;;;;1.17;0.57;;;19.60;64.20;;;;;;4978409;28;44998;-61
2022/11/04 03:57:45;;;;;;;1.38;0.70;;;19.60;64.20;;;;;;4975795;28;43708;-60
2022/11/04 04:00:20;;;;;;;0.70;0.60;;;19.60;64.10;;;;;;4972940;28;43500;-61
2022/11/04 04:02:53;;;;;;;0.77;0.50;;;19.60;64.20;;;;;;4971921;28;43508;-61
2022/11/04 04:05:27;;;;;;;0.77;0.60;;;19.60;64.10;;;;;;4970260;28;44784;-60
2022/11/04 04:08:14;;;;;;;0.52;0.50;;;19.60;64.20;;;;;;4975572;28;43753;-60
2022/11/04 04:10:58;;;;;;;0.75;0.50;;;19.60;64.20;;;;;;4975817;28;43473;-61
2022/11/04 04:13:44;;;;;;;0.85;0.55;;;19.60;64.10;;;;;;4973145;28;43501;-61
2022/11/04 04:16:19;;;;;;;1.05;0.35;;;19.60;64.20;;;;;;4971664;28;43933;-60
2022/11/04 04:19:01;;;;;;;1.25;0.60;;;19.50;64.10;;;;;;4974898;28;43407;-61
2022/11/04 04:21:34;;;;;;;0.77;0.50;;;19.50;64.10;;;;;;4975425;28;43442;-60
2022/11/04 04:29:43;;;;;;;0.98;0.60;;;19.50;64.20;;;;;;4972352;28;43427;-60
2022/11/04 04:32:12;;;;;;;0.50;0.43;;;19.50;64.20;;;;;;4978208;28;43359;-60
2022/11/04 04:34:42;;;;;;;0.60;0.50;;;19.50;64.20;;;;;;4975463;28;43513;-60
2022/11/04 04:37:22;;;;;;;1.27;0.67;;;19.50;64.10;;;;;;4975493;28;44959;-60
2022/11/04 04:45:41;;;;;;;0.73;0.45;;;19.50;64.10;;;;;;4977705;28;43523;-61
2022/11/04 04:48:12;;;;;;;0.70;0.43;;;19.50;64.20;;;;;;4972529;28;43826;-61
2022/11/04 04:50:48;;;;;;;0.93;0.63;;;19.50;64.20;;;;;;4975644;28;43642;-61
2022/11/04 04:53:16;;;;;;;0.55;0.47;;;19.40;64.10;;;;;;4970820;28;43444;-60
2022/11/04 04:55:43;;;;;;;0.93;0.50;;;19.40;64.10;;;;;;4971698;28;43433;-61
2022/11/04 04:58:10;;;;;;;0.75;0.50;;;19.40;64.10;;;;;;4973412;28;45083;-61
2022/11/04 05:00:38;;;;;;;1.08;0.40;;;19.40;64.10;;;;;;4974971;28;43449;-60
2022/11/04 05:03:05;;;;;;;0.63;0.52;;;19.40;64.10;;;;;;4978578;28;43436;-61
2022/11/04 05:05:33;;;;;;;0.73;0.43;;;19.40;64.10;;;;;;4982742;28;43578;-61
2022/11/04 05:08:05;;;;;;;0.50;0.40;;;19.40;64.10;;;;;;4979074;28;43779;-61
2022/11/04 05:10:34;;;;;;;0.60;0.47;;;19.40;64.10;;;;;;4978159;28;43711;-60
2022/11/04 05:15:47;;;;;;;0.85;0.40;;;19.40;64.10;;;;;;4976205;28;43517;-61
2022/11/04 05:18:14;;;;;;;0.80;0.60;;;19.40;64.10;;;;;;4978562;28;43794;-60
2022/11/04 05:20:42;;;;;;;0.93;0.60;;;19.40;64.10;;;;;;4977722;28;43391;-60
2022/11/04 05:23:11;;;;;;;1.65;0.63;;;19.40;64.10;;;;;;4975082;28;43457;-60
2022/11/04 05:25:39;;;;;;;0.50;0.50;;;19.40;64.10;;;;;;4975947;28;43496;-60
2022/11/04 05:28:07;;;;;;;0.63;0.50;;;19.40;64.10;;;;;;4978002;28;44671;-60
2022/11/04 05:30:35;;;;;;;1.08;0.50;;;19.30;64.10;;;;;;4977496;28;43802;-60
2022/11/04 05:33:03;;;;;;;0.50;0.50;;;19.30;64.10;;;;;;4974917;28;43445;-60
2022/11/04 05:35:32;;;;;;;0.70;0.38;;;19.30;64.10;;;;;;4975635;28;43500;-60
2022/11/04 05:38:00;;;;;;;0.47;0.40;;;19.30;64.70;;;;;;4978337;28;45055;-60
2022/11/04 05:40:27;;;;;;;0.30;0.30;;;19.30;64.10;;;;;;4980643;28;43992;-60
2022/11/04 05:42:57;;;;;;;0.98;0.55;;;19.30;64.10;;;;;;4974817;28;43537;-61
2022/11/04 05:45:26;;;;;;;0.65;0.57;;;19.30;64.20;;;;;;4976888;28;43683;-61
2022/11/04 05:48:01;;;;;;;0.35;0.32;;;19.30;64.30;;;;;;4977713;28;44728;-60
2022/11/04 05:50:30;;;;;;;0.82;0.45;;;19.30;64.10;;;;;;4975677;28;43604;-60
2022/11/04 05:52:58;;;;;;;2.28;0.50;;;19.40;64.30;;;;;;4974598;28;43474;-61
2022/11/04 05:55:26;;;;;;;0.88;0.50;;;19.30;64.20;;;;;;4976672;28;43636;-60
2022/11/04 05:57:53;;;;;;;0.93;0.55;;;19.30;64.20;;;;;;4977932;28;44793;-61
2022/11/04 06:00:20;;;;;;;0.40;0.40;;;19.30;64.20;;;;;;4975440;28;44109;-61
2022/11/04 06:02:48;;;;;;;0.50;0.50;;;19.30;64.20;;;;;;4976797;28;43505;-61
2022/11/04 06:05:16;;;;;;;0.50;0.50;;;19.30;64.20;;;;;;4977387;28;43543;-60
2022/11/04 06:07:43;;;;;;;1.02;0.52;;;19.30;64.10;;;;;;4984045;28;45016;-60
2022/11/04 06:10:10;;;;;;;0.30;0.30;;;19.30;64.10;;;;;;4975116;28;43460;-60
2022/11/04 06:12:38;;;;;;;0.50;0.40;;;19.30;64.10;;;;;;4983266;28;43363;-60
2022/11/04 06:15:06;;;;;;;0.80;0.47;;;19.30;64.10;;;;;;4977567;28;43605;-60
2022/11/04 06:17:33;;;;;;;0.32;0.30;;;19.30;64.10;;;;;;4976437;28;44074;-60
2022/11/04 06:20:01;;;;;;;0.65;0.40;;;19.30;64.10;;;;;;4972489;28;43477;-60
2022/11/04 06:22:28;;;;;;;1.05;0.55;;;19.30;64.10;;;;;;4973111;28;43367;-60
2022/11/04 06:24:56;;;;;;;1.48;0.70;;;19.30;64.10;;;;;;4977599;28;43570;-61
2022/11/04 06:27:23;;;;;;;0.52;0.45;;;19.30;64.10;;;;;;4977496;28;44687;-61
2022/11/04 06:29:52;;;;;;;0.50;0.50;;;19.30;64.10;;;;;;4977124;28;44010;-61
2022/11/04 06:32:19;;;;;;;0.40;0.40;;;19.30;64.20;;;;;;4977386;28;43373;-61
2022/11/04 06:34:47;;;;;;;0.47;0.22;;;19.20;64.30;;;;;;4980937;28;43571;-61
2022/11/04 06:37:14;;;;;;;0.57;0.40;;;19.20;64.30;;;;;;4980941;28;43795;-61
2022/11/04 06:39:42;;;;;;;0.40;0.40;;;19.20;64.30;;;;;;4978697;28;43394;-60
2022/11/04 06:42:09;;;;;;;0.30;0.30;;;19.20;64.20;;;;;;4977926;28;43441;-60
2022/11/04 06:44:37;;;;;;;0.50;0.45;;;19.20;64.30;;;;;;4976295;28;43575;-60
2022/11/04 06:47:04;;;;;;;0.30;0.30;;;19.20;64.40;;;;;;4977524;28;43944;-61
2022/11/04 06:49:31;;;;;;;2.15;0.60;;;19.20;64.30;;;;;;4978916;28;43977;-62
2022/11/04 06:52:01;;;;;;;1.05;0.60;;;19.20;64.40;;;;;;4976788;28;43391;-60
2022/11/04 06:54:28;;;;;;;0.93;0.60;;;19.20;64.30;;;;;;4976498;28;43453;-60
2022/11/04 06:56:56;;;;;;;0.60;0.40;;;19.20;64.30;;;;;;4977395;28;44084;-60
2022/11/04 06:59:23;;;;;;;0.85;0.38;;;19.20;64.40;;;;;;4978623;28;43952;-60
2022/11/04 07:01:51;;;;;;;1.20;0.50;;;19.20;64.30;;;;;;4977059;28;43436;-60
2022/11/04 07:04:19;;;;;;;2.05;0.40;;;19.20;64.40;;;;;;4983447;28;43671;-61
2022/11/04 07:06:47;;;;;;;0.80;0.40;;;19.20;64.40;;;;;;4974945;28;44987;-60
2022/11/04 07:09:15;;;;;;;0.70;0.43;;;19.20;64.30;;;;;;4975308;28;43400;-61
2022/11/04 07:11:43;;;;;;;1.42;0.50;;;19.20;64.30;;;;;;4982720;28;43432;-64
2022/11/04 07:14:12;;;;;;;1.17;0.70;;;19.20;64.70;;;;;;4975436;28;43611;-60
2022/11/04 07:16:39;;;;;;;2.65;0.80;;;19.20;64.30;;;;;;4975764;28;45016;-60
2022/11/04 07:19:07;;;;;;;0.40;0.40;;;19.30;64.30;;;;;;4975875;28;43695;-60
2022/11/04 07:21:34;;;;;;;1.38;0.63;;;19.20;64.20;;;;;;4976444;28;43411;-60
2022/11/04 07:24:02;;;;;;;0.50;0.40;;;19.20;64.20;;;;;;4979631;28;43428;-60
2022/11/04 07:26:29;;;;;;;1.33;0.68;;;19.20;64.20;;;;;;4975730;28;43732;-60
2022/11/04 07:28:58;;;;;;;0.50;0.40;;;19.30;64.20;;;;;;4975054;28;44188;-60
2022/11/04 07:31:26;;;;;;;0.95;0.70;;;19.20;64.10;;;;;;4975353;28;43451;-60
2022/11/04 07:33:53;;;;;;;0.60;0.50;;;19.20;64.30;;;;;;4974480;28;43461;-61
2022/11/04 07:36:21;;;;;;;0.40;0.40;;;19.20;64.20;;;;;;4975440;28;44994;-60
2022/11/04 07:38:49;;;;;;;0.60;0.52;;;19.20;64.30;;;;;;4978587;28;43506;-61
2022/11/04 07:41:16;;;;;;;1.23;0.60;;;19.20;64.30;;;;;;4975816;28;43477;-61
2022/11/04 07:43:50;;;;;;;0.40;0.40;;;19.20;64.30;;;;;;4975832;28;43415;-60
2022/11/04 07:46:19;;;;;;;0.70;0.57;;;19.20;64.30;;;;;;4976923;28;44059;-60
2022/11/04 07:48:46;;;;;;;0.90;0.50;;;19.20;64.30;;;;;;4975829;28;43837;-60
2022/11/04 07:51:16;;;;;;;2.10;0.50;;;19.20;64.40;;;;;;4974744;28;43520;-62
2022/11/04 07:53:44;;;;;;;0.65;0.60;;;19.20;64.50;;;;;;4982512;28;43499;-63
2022/11/04 07:56:12;;;;;;;3.35;3.05;;;19.10;64.40;;;;;;4978139;28;43745;-63
2022/11/04 07:58:41;;;;;;;4.75;3.85;;;19.10;64.50;;;;;;4975406;28;43438;-63
2022/11/04 08:01:12;;;;;;;3.00;2.78;;;19.20;64.60;;;;;;4978203;28;43440;-63
2022/11/04 08:03:40;;;;;;;3.40;2.75;;;19.10;64.60;;;;;;4973742;28;43488;-64
2022/11/04 08:06:09;;;;;;;3.45;2.85;;;19.10;64.70;;;;;;4979693;28;43792;-62
2022/11/04 08:08:37;;;;;;;3.58;2.60;;;19.20;64.80;;;;;;4972168;28;43570;-62
2022/11/04 08:11:08;;;;;;;2.30;2.20;;;19.30;64.60;;;;;;4982037;28;44037;-62
2022/11/04 08:13:44;;;;;;;2.40;2.20;;;19.30;64.40;;;;;;4977738;28;43500;-62
2022/11/04 08:16:17;;;;;;;2.55;2.30;;;19.40;65.00;;;;;;4978195;28;43633;-63
2022/11/04 08:18:47;;;;;;;2.42;2.22;;;19.60;64.20;;;;;;4979163;28;43380;-63
2022/11/04 08:21:15;;;;;;;3.50;2.00;;;19.60;64.60;;;;;;4978182;28;43470;-62
2022/11/04 08:23:43;;;;;;;2.13;2.03;;;19.70;64.10;;;;;;4975804;28;43947;-62
2022/11/04 08:26:19;;;;;;;2.10;2.00;;;19.80;63.90;;;;;;4979730;28;45110;-62
2022/11/04 08:28:47;;;;;;;3.17;1.80;;;20.00;63.70;;;;;;4980775;28;43987;-63
2022/11/04 08:31:27;;;;;;;1.95;1.85;;;20.10;63.40;;;;;;4978791;28;43555;-64
2022/11/04 08:33:56;;;;;;;1.90;1.80;;;20.10;63.30;;;;;;4992411;28;43541;-63
2022/11/04 08:36:26;;;;;;;2.47;1.67;;;20.20;63.10;;;;;;4977765;28;43769;-63
2022/11/04 08:38:54;;;;;;;2.00;1.63;;;20.30;62.90;;;;;;4982708;28;43813;-63
2022/11/04 08:41:25;;;;;;;1.70;1.60;;;20.30;62.80;;;;;;4980414;28;43505;-63
2022/11/04 08:43:54;;;;;;;1.67;1.58;;;20.40;62.70;;;;;;4981553;28;43457;-63
2022/11/04 08:46:21;;;;;;;1.70;1.60;;;20.40;62.60;;;;;;4982757;28;44050;-63
2022/11/04 08:48:49;;;;;;;1.60;1.50;;;20.50;62.60;;;;;;4980843;28;44011;-63
2022/11/04 08:51:20;;;;;;;1.98;1.60;;;20.60;62.60;;;;;;4981284;28;43442;-63
2022/11/04 08:53:48;;;;;;;1.27;1.17;;;20.70;62.60;;;;;;4981611;28;43574;-63
2022/11/04 08:56:23;;;;;;;1.63;1.40;;;20.80;62.50;;;;;;4982914;28;44726;-67
2022/11/04 08:58:52;;;;;;;1.73;1.27;;;20.90;62.20;;;;;;4983922;28;43710;-63
2022/11/04 09:01:20;;;;;;;2.58;1.40;;;21.10;62.00;;;;;;4978446;28;43396;-64
2022/11/04 09:03:49;;;;;;;1.70;1.55;;;21.30;61.80;;;;;;4984041;28;43531;-63
2022/11/04 09:06:23;;;;;;;2.75;1.45;;;21.50;61.60;;;;;;4982158;28;43865;-63
2022/11/04 09:08:54;;;;;;;2.00;1.70;;;21.60;61.30;;;;;;4983304;28;44045;-64
2022/11/04 09:11:22;;;;;;;2.00;1.45;;;21.80;61.00;;;;;;4982331;28;43376;-63
2022/11/04 09:13:49;;;;;;;1.42;1.30;;;21.90;60.60;;;;;;4982274;28;43570;-63
2022/11/04 09:16:17;;;;;;;2.63;1.60;;;22.10;60.40;;;;;;4981876;28;44969;-64
2022/11/04 09:18:44;;;;;;;1.55;1.40;;;22.20;60.30;;;;;;4980486;28;43420;-63
2022/11/04 09:21:13;;;;;;;2.90;1.35;;;22.20;60.10;;;;;;4978072;28;43430;-63
2022/11/04 09:23:40;;;;;;;2.20;1.25;;;22.30;60.00;;;;;;4980539;28;43530;-62
2022/11/04 09:26:13;;;;;;;1.15;1.10;;;22.30;60.20;;;;;;4980709;28;43714;-62
2022/11/04 09:28:41;;;;;;;1.42;1.27;;;22.40;60.10;;;;;;4978452;28;43361;-63
2022/11/04 09:31:16;;;;;;;1.23;1.02;;;22.40;59.90;;;;;;4983806;28;43374;-62
2022/11/04 09:33:44;;;;;;;2.60;1.08;;;22.50;59.90;;;;;;4982040;28;43534;-63
2022/11/04 09:36:13;;;;;;;2.47;1.30;;;22.60;60.20;;;;;;4982875;28;44067;-61
2022/11/04 09:38:41;;;;;;;1.05;1.00;;;22.70;60.00;;;;;;4978572;28;43691;-61
2022/11/04 09:41:19;;;;;;;1.27;0.85;;;22.70;59.90;;;;;;4981252;28;43403;-61
2022/11/04 09:44:03;;;;;;;1.30;1.00;;;22.80;59.80;;;;;;4980904;28;43509;-61
2022/11/04 09:46:32;;;;;;;1.35;1.00;;;22.80;59.70;;;;;;4978934;28;44997;-62
2022/11/04 09:49:03;;;;;;;4.65;1.10;;;22.80;59.80;;;;;;4979681;28;43650;-61
2022/11/04 09:51:31;;;;;;;3.33;1.13;;;22.80;59.50;;;;;;4982975;28;43301;-61
2022/11/04 09:54:23;;;;;;;2.45;0.95;;;22.80;59.60;;;;;;4979960;28;43555;-62
2022/11/04 09:56:54;;;;;;;2.08;0.82;;;22.80;60.10;;;;;;4980254;28;45049;-62
2022/11/04 09:59:33;;;;;;;5.68;1.27;;;22.90;59.60;;;;;;4982251;28;43380;-63
2022/11/04 10:02:29;;;;;;;3.63;1.02;;;22.90;59.60;;;;;;4980326;28;43392;-65
2022/11/04 10:05:27;;;;;;;2.45;0.80;;;23.00;59.50;;;;;;4983767;28;43575;-61
2022/11/04 10:08:13;;;;;;;1.38;0.80;;;23.00;59.80;;;;;;4977852;28;44944;-61
2022/11/04 10:11:04;;;;;;;3.42;1.23;;;23.00;59.80;;;;;;4979910;28;44077;-50
2022/11/04 10:13:50;;;;;;;1.45;0.85;;;23.00;59.50;;;;;;4980148;28;43523;-62
2022/11/04 10:16:58;;;;;;;1.77;0.85;;;23.00;59.90;;;;;;4982787;28;43468;-60
2022/11/04 10:19:52;;;;;;;1.30;0.93;;;23.00;59.40;;;;;;4981226;28;44059;-63
2022/11/04 10:22:55;;;;;;;2.35;0.80;;;23.00;59.30;;;;;;4981793;28;43498;-61
2022/11/04 10:25:37;;;;;;;1.67;0.70;;;23.00;59.50;;;;;;4945792;28;43694;-61
2022/11/04 10:28:10;;;;;;;1.40;0.70;;;22.90;59.40;;;;;;4980722;28;43447;-61
2022/11/04 10:30:40;;;;;;;1.15;0.90;;;22.90;59.50;;;;;;4979461;28;44816;-60
2022/11/04 10:33:13;;;;;;;2.13;0.70;;;22.80;59.70;;;;;;4983165;28;43943;-59
2022/11/04 10:35:43;;;;;;;1.60;0.65;;;22.80;59.90;;;;;;4978303;28;43434;-61
2022/11/04 10:38:35;;;;;;;1.00;0.90;;;22.80;60.00;;;;;;4983708;28;43460;-62
2022/11/04 10:41:21;;;;;;;0.55;0.55;;;22.80;59.90;;;;;;4978304;28;43700;-62
2022/11/04 10:43:57;;;;;;;1.38;1.00;;;22.70;59.90;;;;;;4982201;28;43435;-62
2022/11/04 10:46:48;;;;;;;1.33;0.77;;;22.60;60.00;;;;;;4981514;28;43431;-62
2022/11/04 10:49:40;;;;;;;1.67;0.60;;;22.60;60.80;;;;;;4979749;28;43530;-63
2022/11/04 10:52:31;;;;;;;1.83;0.80;;;22.60;60.30;;;;;;4978194;28;44976;-64
2022/11/04 10:54:58;;;;;;;0.60;0.50;;;22.50;60.70;;;;;;4979587;28;43451;-62
2022/11/04 10:57:27;;;;;;;1.30;0.55;;;22.50;60.50;;;;;;4972721;28;43418;-61
2022/11/04 10:59:55;;;;;;;1.88;0.90;;;22.50;60.30;;;;;;4979917;28;43497;-62
2022/11/04 11:02:44;;;;;;;0.93;0.68;;;22.50;60.50;;;;;;4981549;28;44953;-62
2022/11/04 11:05:18;;;;;;;1.90;0.90;;;22.40;60.50;;;;;;4980075;28;43533;-62
2022/11/04 11:07:49;;;;;;;1.85;0.90;;;22.40;61.20;;;;;;4981520;28;43404;-62
2022/11/04 11:10:19;;;;;;;1.52;0.90;;;22.30;60.60;;;;;;4981024;28;43570;-63
2022/11/04 11:13:01;;;;;;;1.63;0.90;;;22.30;60.60;;;;;;4980133;28;44034;-62
2022/11/04 11:15:35;;;;;;;1.50;0.70;;;22.20;60.80;;;;;;4977527;28;43513;-65
2022/11/04 11:18:14;;;;;;;2.60;0.98;;;22.20;60.90;;;;;;4978628;28;43906;-63
2022/11/04 11:21:10;;;;;;;1.05;0.60;;;22.20;61.00;;;;;;4981025;28;43459;-62
2022/11/04 11:23:49;;;;;;;1.30;0.80;;;22.10;60.90;;;;;;4997349;28;44062;-63
2022/11/04 11:26:30;;;;;;;0.85;0.63;;;22.10;61.00;;;;;;4978861;28;43719;-63
2022/11/04 11:29:02;;;;;;;1.95;0.80;;;22.10;61.20;;;;;;4980656;28;43390;-62
2022/11/04 11:31:39;;;;;;;2.35;1.00;;;22.00;61.00;;;;;;4964930;28;43517;-63
2022/11/04 11:34:17;;;;;;;2.15;0.68;;;22.00;61.00;;;;;;4981092;28;43816;-62
2022/11/04 11:36:46;;;;;;;1.20;0.70;;;21.90;61.00;;;;;;4981207;28;43429;-62
2022/11/04 11:39:22;;;;;;;3.60;1.27;;;21.90;61.10;;;;;;4949458;28;43434;-61
2022/11/04 11:42:11;;;;;;;0.98;0.75;;;21.90;61.10;;;;;;4978305;28;43531;-61
2022/11/04 11:44:49;;;;;;;2.58;0.90;;;21.90;61.20;;;;;;4978453;28;44721;-61
2022/11/04 11:47:29;;;;;;;2.80;0.80;;;21.90;61.40;;;;;;4976333;28;43447;-61
2022/11/04 11:50:08;;;;;;;1.27;1.00;;;21.80;61.40;;;;;;4981749;28;43442;-62
2022/11/04 11:52:37;;;;;;;1.60;0.93;;;21.80;61.60;;;;;;4979442;28;43484;-62
2022/11/04 11:55:23;;;;;;;1.67;0.90;;;21.70;61.50;;;;;;4979206;28;44285;-62
2022/11/04 11:58:25;;;;;;;1.55;0.80;;;21.70;61.60;;;;;;4979122;28;44005;-61
2022/11/04 12:01:23;;;;;;;2.05;1.05;;;21.70;61.80;;;;;;4975150;28;43544;-61
2022/11/04 12:03:52;;;;;;;3.05;0.98;;;21.70;61.80;;;;;;4978388;28;43446;-62
2022/11/04 12:07:07;;;;;;;2.25;0.80;;;21.60;61.80;;;;;;4972516;28;43895;-61
2022/11/04 12:10:17;;;;;;;3.10;0.90;;;21.60;61.90;;;;;;4972711;28;44027;-61
2022/11/04 12:13:15;;;;;;;1.15;0.80;;;21.60;61.90;;;;;;4976347;28;43440;-61
2022/11/04 12:16:05;;;;;;;1.77;1.00;;;21.50;61.90;;;;;;4972910;28;43534;-61
2022/11/04 12:18:51;;;;;;;3.47;1.10;;;21.50;62.00;;;;;;4979097;28;44685;-62
2022/11/04 12:21:31;;;;;;;1.88;0.93;;;21.50;62.00;;;;;;4980992;28;43488;-63
2022/11/04 12:24:26;;;;;;;2.53;1.08;;;21.50;62.70;;;;;;4981211;28;43486;-63
2022/11/04 12:27:11;;;;;;;1.35;0.80;;;21.50;62.20;;;;;;4979544;28;43460;-63
2022/11/04 12:29:52;;;;;;;2.78;1.05;;;21.50;62.10;;;;;;4979421;28;43952;-62
2022/11/04 12:32:44;;;;;;;1.85;0.90;;;21.40;62.10;;;;;;4981505;28;43516;-63
2022/11/04 12:35:25;;;;;;;1.75;0.90;;;21.40;62.20;;;;;;4978818;28;43513;-64
2022/11/04 12:38:23;;;;;;;2.40;1.05;;;21.40;62.30;;;;;;4980067;28;43524;-63
2022/11/04 12:41:10;;;;;;;2.33;1.23;;;21.40;62.30;;;;;;4980999;28;43930;-63
2022/11/04 12:44:25;;;;;;;1.00;0.90;;;21.30;62.10;;;;;;4983373;28;43507;-64
2022/11/04 12:47:08;;;;;;;3.65;0.90;;;21.30;62.00;;;;;;4935538;28;43521;-64
2022/11/04 12:49:50;;;;;;;1.90;0.90;;;21.30;62.10;;;;;;4981119;28;43392;-63
2022/11/04 12:52:39;;;;;;;2.03;0.85;;;21.30;62.10;;;;;;4982891;28;45093;-64
2022/11/04 12:55:25;;;;;;;1.70;0.75;;;21.20;62.10;;;;;;4978435;28;43467;-64
2022/11/04 12:58:15;;;;;;;1.30;0.88;;;21.20;62.20;;;;;;4978037;28;43517;-64
2022/11/04 13:00:47;;;;;;;1.67;1.00;;;21.20;62.30;;;;;;4982799;28;43648;-64
2022/11/04 13:03:30;;;;;;;2.20;0.98;;;21.20;62.30;;;;;;4982694;28;44055;-63
2022/11/04 13:06:07;;;;;;;0.98;0.70;;;21.20;62.30;;;;;;4982823;28;43664;-64
2022/11/04 13:08:49;;;;;;;3.00;0.98;;;21.20;62.30;;;;;;4982957;28;43404;-64
2022/11/04 13:11:28;;;;;;;2.60;1.05;;;21.20;62.30;;;;;;4979362;28;43570;-64
2022/11/04 13:14:28;;;;;;;1.67;0.98;;;21.20;62.50;;;;;;4975943;28;44099;-63
2022/11/04 13:17:05;;;;;;;2.55;0.93;;;21.20;62.30;;;;;;4952616;28;43352;-65
2022/11/04 13:19:44;;;;;;;3.92;1.10;;;21.20;62.60;;;;;;4984076;28;43723;-64
2022/11/04 13:22:25;;;;;;;3.08;1.20;;;21.10;62.50;;;;;;4981913;28;43471;-64
2022/11/04 13:25:13;;;;;;;2.38;0.90;;;21.10;62.60;;;;;;4973549;28;43808;-64
2022/11/04 13:27:46;;;;;;;1.42;0.88;;;21.10;62.50;;;;;;4980509;28;43461;-64
2022/11/04 13:30:53;;;;;;;2.58;0.80;;;21.00;62.60;;;;;;4978185;28;43572;-64
2022/11/04 13:33:34;;;;;;;2.40;1.00;;;21.00;62.60;;;;;;4977646;28;43455;-64
2022/11/04 13:36:01;;;;;;;1.70;1.00;;;21.00;62.70;;;;;;4983296;28;44088;-64
2022/11/04 13:38:43;;;;;;;4.03;1.20;;;21.00;62.80;;;;;;4980279;28;43565;-64
2022/11/04 13:41:38;;;;;;;3.40;1.00;;;21.00;62.70;;;;;;4975203;28;43442;-65
2022/11/04 13:44:26;;;;;;;2.35;1.10;;;21.00;62.80;;;;;;4979632;28;43591;-64
2022/11/04 13:47:00;;;;;;;2.53;1.00;;;20.90;63.10;;;;;;4980015;28;43683;-65
2022/11/04 13:49:35;;;;;;;2.22;1.15;;;20.90;62.90;;;;;;4986720;28;43495;-65
2022/11/04 13:52:09;;;;;;;3.85;1.10;;;20.90;62.90;;;;;;4981757;28;43489;-66
2022/11/04 13:54:41;;;;;;;3.00;1.17;;;20.90;62.90;;;;;;4971814;28;43357;-65
2022/11/04 13:57:16;;;;;;;4.40;1.20;;;20.90;63.00;;;;;;4979169;28;44050;-65
2022/11/04 14:00:16;;;;;;;1.98;0.98;;;20.80;63.00;;;;;;4977054;28;44001;-64